メインページ
METAR-TAF:

METAR-TAF

空港 :

ポートエンジェルス, ワシントン, アメリカ合衆国

緯度: 48-08-27N, 経度: 123-24-39W, 海抜: 4m

現時点の気象観測

当レポートは28分前の09:50(UTC)に作成
南/南西の風 3kt
気温 11°C
湿度 94%
気圧 1024 hPa
視程: 16.1km
晴天

METAR: KNOW 260950Z AUTO 21003KT 10SM CLR 11/10 A3023 RMK AO2 T01120102

時間: 03:18 (10:18 UTC)


TAF: 見つかりません

4,000以上の空港の気象観測と天気予報(METAR報とTAF報)

利用可能な観測所は地図上に黄色い丸と赤い丸で示す。

丸の上にカーソルを重ねると観測所名を参照できる。

次にクリックすると気象観測と天気予報を参照できる。

マップの切り替え:黒色「×」印の緑ボタンをクリックして拡大、「-」印の緑ボタンをクリックして縮小、緑色の三角印をクリックして隣りの地図に切り替え


METAR-TAF: